Impacts TAF Board
For situational awareness. Not to be used for flight planning purposes.
IDs:

KCLL - College Station/East, TX, US

Issued at 0520 UTC 19 Aug 2019
Updated at 0602 UTC 19 Aug 2019
Potential Impact None Slight Moderate High
Time0553Z 19/07Z 19/08Z 19/09Z 19/10Z 19/11Z 19/12Z 19/13Z 19/14Z 19/15Z 19/16Z 19/17Z 19/18Z 19/19Z>>
Type OBS PRVL PRVL PRVL PRVL PRVL PRVL PRVL PRVL PRVL PRVL PRVL PRVL PRVL
VIS 10 >6 >6 >6 >6 >6 >6 >6 >6 >6 >6 >6 >6 >6
CIG -- -- -- -- -- -- -- 25 25 -- -- -- -- --
Cover CLR SKC SKC FEW FEW FEW FEW BKN BKN SCT SCT SCT SCT SCT
FltCat VFR VFR VFR VFR VFR VFR VFR MVFR MVFR VFR VFR VFR VFR VFR
WX -- -- -- -- -- -- -- -- -- -- -- -- -- --
WDir 170 170 170 170 170 170 170 180 180 190 190 190 190 190
WSpd 8 9 9 5 5 5 5 5 5 9 9 9 9 9
WGst -- -- -- -- -- -- -- -- -- -- -- -- -- --
Raw TAF
KCLL 190520Z 1906/2006 17009KT P6SM SKC
  FM190900 17005KT P6SM FEW025
  FM191300 18005KT P6SM BKN025
  FM191500 19009KT P6SM SCT045
  FM192100 16008KT P6SM SCT060
  FM200200 16006KT P6SM SKC


Raw METAR
KCLL 190553Z AUTO 17008KT 10SM CLR 28/24 A2994 RMK AO2 SLP134 T02830244 10350 20283 403780261 51021
KCLL 190453Z AUTO 18008KT 10SM CLR 29/23 A2993 RMK AO2 SLP129 T02940233
KCLL 190353Z AUTO 17012KT 10SM CLR 31/23 A2992 RMK AO2 SLP126 T03060233

METAR Board
Radar Display
Forecast Discussion
For situational awareness. Not to be used for flight planning purposes.